SWA3058 KDAL-KAUS
Flight info
| Callsign | SWA3058 |
|---|---|
| Flight time | 0h 34m |
| Altitude | 24000 |
| Route | CURLO6 WINDU SEWZY6 |
| Aircraft | B738/M-SDE2E3FGHIRWXY/LB1 |
Departure
| Time | 2026-05-03 21:21 |
|---|---|
| Airport | Dallas Love Field (KDAL) |
Arrival
| Time | 2026-05-03 21:55 |
|---|---|
| Airport | Austin Bergstrom International Airport (KAUS) |
| Time | Latitude | Longitude | Altitude | Speed | Heading |
|---|---|---|---|---|---|
| 2026-05-03 20:44 | 32.84649 | -96.85138 | 481 ft | 0 kts | 180° |
| 2026-05-03 21:14 | 32.84670 | -96.85138 | 481 ft | 4 kts | 180° |
| 2026-05-03 21:15 | 32.84697 | -96.85138 | 481 ft | 4 kts | 180° |
| 2026-05-03 21:15 | 32.84725 | -96.85138 | 481 ft | 4 kts | 180° |
| 2026-05-03 21:15 | 32.84739 | -96.85138 | 481 ft | 1 kts | 180° |
| 2026-05-03 21:17 | 32.84737 | -96.85139 | 473 ft | 2 kts | 186° |
| 2026-05-03 21:17 | 32.84739 | -96.85178 | 481 ft | 8 kts | 298° |
| 2026-05-03 21:17 | 32.84751 | -96.85272 | 481 ft | 13 kts | 283° |
| 2026-05-03 21:18 | 32.84790 | -96.85368 | 481 ft | 13 kts | 282° |
| 2026-05-03 21:18 | 32.84790 | -96.85485 | 481 ft | 16 kts | 269° |
| 2026-05-03 21:18 | 32.84770 | -96.85628 | 481 ft | 18 kts | 255° |
| 2026-05-03 21:18 | 32.84791 | -96.85763 | 479 ft | 18 kts | 315° |
| 2026-05-03 21:19 | 32.84878 | -96.85863 | 478 ft | 17 kts | 316° |
| 2026-05-03 21:19 | 32.84962 | -96.85962 | 481 ft | 18 kts | 315° |
| 2026-05-03 21:19 | 32.85057 | -96.86073 | 481 ft | 21 kts | 315° |
| 2026-05-03 21:19 | 32.85165 | -96.86201 | 481 ft | 21 kts | 312° |
| 2026-05-03 21:20 | 32.85140 | -96.86309 | 481 ft | 15 kts | 210° |
| 2026-05-03 21:20 | 32.85027 | -96.86218 | 481 ft | 44 kts | 136° |
| 2026-05-03 21:20 | 32.84599 | -96.85724 | 478 ft | 125 kts | 136° |
| 2026-05-03 21:20 | 32.83825 | -96.84823 | 692 ft | 171 kts | 136° |
| 2026-05-03 21:21 | 32.82968 | -96.83789 | 1359 ft | 189 kts | 141° |
| 2026-05-03 21:21 | 32.81958 | -96.82769 | 2185 ft | 200 kts | 139° |
| 2026-05-03 21:21 | 32.80917 | -96.81477 | 2489 ft | 232 kts | 134° |
| 2026-05-03 21:21 | 32.79788 | -96.79980 | 3067 ft | 243 kts | 135° |
| 2026-05-03 21:22 | 32.78629 | -96.78472 | 3595 ft | 261 kts | 135° |
| 2026-05-03 21:22 | 32.77360 | -96.76862 | 4304 ft | 272 kts | 136° |
| 2026-05-03 21:22 | 32.76063 | -96.75227 | 5361 ft | 271 kts | 136° |
| 2026-05-03 21:22 | 32.74730 | -96.73619 | 6330 ft | 276 kts | 138° |
| 2026-05-03 21:23 | 32.73342 | -96.72026 | 7282 ft | 279 kts | 139° |
| 2026-05-03 21:23 | 32.71709 | -96.70800 | 8151 ft | 280 kts | 164° |
| 2026-05-03 21:23 | 32.69788 | -96.70592 | 9063 ft | 280 kts | 190° |
| 2026-05-03 21:23 | 32.67926 | -96.71278 | 9686 ft | 282 kts | 205° |
| 2026-05-03 21:24 | 32.66140 | -96.72280 | 9970 ft | 284 kts | 207° |
| 2026-05-03 21:24 | 32.64338 | -96.73321 | 9968 ft | 290 kts | 207° |
| 2026-05-03 21:24 | 32.62528 | -96.74347 | 9969 ft | 287 kts | 206° |
| 2026-05-03 21:24 | 32.60775 | -96.75467 | 9981 ft | 286 kts | 215° |
| 2026-05-03 21:25 | 32.59184 | -96.76875 | 9989 ft | 285 kts | 219° |
| 2026-05-03 21:25 | 32.57649 | -96.78364 | 9987 ft | 285 kts | 220° |
| 2026-05-03 21:25 | 32.56116 | -96.79865 | 9986 ft | 286 kts | 220° |
| 2026-05-03 21:25 | 32.54577 | -96.81360 | 9981 ft | 286 kts | 220° |
| 2026-05-03 21:26 | 32.53036 | -96.82845 | 9999 ft | 286 kts | 220° |
| 2026-05-03 21:26 | 32.51487 | -96.84322 | 10000 ft | 286 kts | 219° |
| 2026-05-03 21:26 | 32.49930 | -96.85792 | 9993 ft | 287 kts | 219° |
| 2026-05-03 21:26 | 32.48368 | -96.87267 | 9996 ft | 287 kts | 219° |
| 2026-05-03 21:27 | 32.46824 | -96.88725 | 9995 ft | 287 kts | 219° |
| 2026-05-03 21:27 | 32.45244 | -96.90214 | 9997 ft | 287 kts | 219° |
| 2026-05-03 21:27 | 32.43702 | -96.91663 | 9982 ft | 287 kts | 219° |
| 2026-05-03 21:27 | 32.42138 | -96.93130 | 10005 ft | 287 kts | 219° |
| 2026-05-03 21:28 | 32.40571 | -96.94599 | 10036 ft | 290 kts | 219° |
| 2026-05-03 21:28 | 32.38936 | -96.96133 | 10182 ft | 312 kts | 219° |
| 2026-05-03 21:28 | 32.37167 | -96.97797 | 10434 ft | 337 kts | 219° |
| 2026-05-03 21:28 | 32.35293 | -96.99551 | 11054 ft | 349 kts | 219° |
| 2026-05-03 21:29 | 32.33374 | -97.01341 | 11828 ft | 354 kts | 219° |
| 2026-05-03 21:29 | 32.31435 | -97.03157 | 12623 ft | 358 kts | 219° |
| 2026-05-03 21:29 | 32.29419 | -97.04929 | 13363 ft | 365 kts | 211° |
| 2026-05-03 21:29 | 32.27024 | -97.05963 | 14118 ft | 371 kts | 190° |
| 2026-05-03 21:30 | 32.24432 | -97.06179 | 14892 ft | 376 kts | 183° |
| 2026-05-03 21:30 | 32.21801 | -97.06252 | 15622 ft | 381 kts | 182° |
| 2026-05-03 21:30 | 32.19127 | -97.06296 | 16288 ft | 387 kts | 182° |
| 2026-05-03 21:30 | 32.16419 | -97.06341 | 16960 ft | 391 kts | 182° |
| 2026-05-03 21:31 | 32.13681 | -97.06398 | 17638 ft | 395 kts | 183° |
| 2026-05-03 21:31 | 32.10926 | -97.06465 | 18284 ft | 399 kts | 183° |
| 2026-05-03 21:31 | 32.08127 | -97.06543 | 18895 ft | 404 kts | 184° |
| 2026-05-03 21:31 | 32.05306 | -97.06628 | 19492 ft | 408 kts | 184° |
| 2026-05-03 21:32 | 32.02443 | -97.06717 | 20071 ft | 413 kts | 184° |
| 2026-05-03 21:32 | 31.99557 | -97.06807 | 20650 ft | 417 kts | 185° |
| 2026-05-03 21:32 | 31.96642 | -97.06899 | 21178 ft | 422 kts | 185° |
| 2026-05-03 21:32 | 31.93686 | -97.06991 | 21671 ft | 426 kts | 185° |
| 2026-05-03 21:33 | 31.90703 | -97.07085 | 22187 ft | 430 kts | 186° |
| 2026-05-03 21:33 | 31.87693 | -97.07179 | 22687 ft | 434 kts | 186° |
| 2026-05-03 21:33 | 31.84661 | -97.07274 | 23169 ft | 438 kts | 186° |
| 2026-05-03 21:33 | 31.81646 | -97.07368 | 23633 ft | 441 kts | 186° |
| 2026-05-03 21:34 | 31.78567 | -97.07464 | 24083 ft | 445 kts | 187° |
| 2026-05-03 21:34 | 31.75452 | -97.07561 | 24164 ft | 451 kts | 187° |
| 2026-05-03 21:34 | 31.72309 | -97.07659 | 24177 ft | 453 kts | 186° |
| 2026-05-03 21:34 | 31.69188 | -97.07751 | 24171 ft | 442 kts | 187° |
| 2026-05-03 21:35 | 31.66165 | -97.07839 | 24185 ft | 429 kts | 187° |
| 2026-05-03 21:35 | 31.63193 | -97.07931 | 24199 ft | 426 kts | 187° |
| 2026-05-03 21:35 | 31.60233 | -97.08026 | 24209 ft | 426 kts | 187° |
| 2026-05-03 21:35 | 31.57262 | -97.08122 | 23939 ft | 429 kts | 187° |
| 2026-05-03 21:36 | 31.54291 | -97.08217 | 23494 ft | 425 kts | 188° |
| 2026-05-03 21:36 | 31.51425 | -97.08730 | 22977 ft | 410 kts | 203° |
| 2026-05-03 21:36 | 31.48743 | -97.09807 | 22482 ft | 405 kts | 205° |
| 2026-05-03 21:36 | 31.46097 | -97.10896 | 21987 ft | 402 kts | 204° |
| 2026-05-03 21:37 | 31.43458 | -97.11971 | 21482 ft | 399 kts | 204° |
| 2026-05-03 21:37 | 31.40833 | -97.13023 | 20993 ft | 397 kts | 204° |
| 2026-05-03 21:37 | 31.38223 | -97.14055 | 20503 ft | 394 kts | 203° |
| 2026-05-03 21:37 | 31.35632 | -97.15071 | 20010 ft | 391 kts | 203° |
| 2026-05-03 21:38 | 31.33092 | -97.16063 | 19539 ft | 388 kts | 202° |
| 2026-05-03 21:38 | 31.30538 | -97.17061 | 19045 ft | 386 kts | 202° |
| 2026-05-03 21:38 | 31.28003 | -97.18051 | 18575 ft | 383 kts | 202° |
| 2026-05-03 21:38 | 31.25493 | -97.19028 | 18299 ft | 375 kts | 202° |
| 2026-05-03 21:39 | 31.23033 | -97.19987 | 17874 ft | 372 kts | 202° |
| 2026-05-03 21:39 | 31.20587 | -97.20941 | 17440 ft | 370 kts | 202° |
| 2026-05-03 21:39 | 31.18140 | -97.21895 | 16854 ft | 371 kts | 201° |
| 2026-05-03 21:39 | 31.15695 | -97.22848 | 16394 ft | 370 kts | 201° |
| 2026-05-03 21:40 | 31.13258 | -97.23797 | 15912 ft | 367 kts | 201° |
| 2026-05-03 21:40 | 31.10834 | -97.24740 | 15471 ft | 365 kts | 201° |
| 2026-05-03 21:40 | 31.08457 | -97.25665 | 15012 ft | 363 kts | 201° |
| 2026-05-03 21:40 | 31.06068 | -97.26596 | 14568 ft | 361 kts | 201° |
| 2026-05-03 21:41 | 31.03691 | -97.27519 | 14113 ft | 359 kts | 201° |
| 2026-05-03 21:41 | 31.01330 | -97.28436 | 13678 ft | 356 kts | 201° |
| 2026-05-03 21:41 | 30.98997 | -97.29342 | 13432 ft | 348 kts | 200° |
| 2026-05-03 21:41 | 30.96731 | -97.30220 | 13275 ft | 339 kts | 200° |
| 2026-05-03 21:42 | 30.94524 | -97.31076 | 13123 ft | 330 kts | 200° |
| 2026-05-03 21:42 | 30.92377 | -97.31909 | 12969 ft | 322 kts | 201° |
| 2026-05-03 21:42 | 30.90259 | -97.32736 | 12617 ft | 320 kts | 200° |
| 2026-05-03 21:42 | 30.88157 | -97.33561 | 12311 ft | 317 kts | 200° |
| 2026-05-03 21:43 | 30.86075 | -97.34374 | 11983 ft | 315 kts | 200° |
| 2026-05-03 21:43 | 30.84013 | -97.35185 | 11661 ft | 309 kts | 200° |
| 2026-05-03 21:43 | 30.82006 | -97.35971 | 11341 ft | 300 kts | 200° |
| 2026-05-03 21:43 | 30.80077 | -97.36832 | 11029 ft | 293 kts | 206° |
| 2026-05-03 21:44 | 30.78265 | -97.37861 | 10687 ft | 288 kts | 208° |
| 2026-05-03 21:44 | 30.76499 | -97.38913 | 10374 ft | 287 kts | 208° |
| 2026-05-03 21:44 | 30.74745 | -97.39953 | 10217 ft | 279 kts | 207° |
| 2026-05-03 21:44 | 30.73031 | -97.40953 | 9838 ft | 274 kts | 207° |
| 2026-05-03 21:45 | 30.71328 | -97.41934 | 9388 ft | 273 kts | 206° |
| 2026-05-03 21:45 | 30.69634 | -97.42903 | 8983 ft | 270 kts | 206° |
| 2026-05-03 21:45 | 30.67973 | -97.43851 | 8660 ft | 263 kts | 205° |
| 2026-05-03 21:45 | 30.66346 | -97.44777 | 8372 ft | 257 kts | 206° |
| 2026-05-03 21:46 | 30.64761 | -97.45679 | 8097 ft | 250 kts | 205° |
| 2026-05-03 21:46 | 30.63213 | -97.46558 | 7836 ft | 247 kts | 205° |
| 2026-05-03 21:46 | 30.62183 | -97.47142 | 7672 ft | 248 kts | 205° |
| 2026-05-03 21:46 | 30.60622 | -97.48031 | 7407 ft | 256 kts | 206° |
| 2026-05-03 21:47 | 30.59000 | -97.48955 | 7146 ft | 262 kts | 205° |
| 2026-05-03 21:47 | 30.57366 | -97.49882 | 6860 ft | 258 kts | 205° |
| 2026-05-03 21:47 | 30.55761 | -97.50795 | 6564 ft | 256 kts | 205° |
| 2026-05-03 21:47 | 30.54161 | -97.51704 | 6282 ft | 256 kts | 205° |
| 2026-05-03 21:48 | 30.52561 | -97.52612 | 6009 ft | 256 kts | 205° |
| 2026-05-03 21:48 | 30.50961 | -97.53521 | 5727 ft | 256 kts | 205° |
| 2026-05-03 21:48 | 30.49361 | -97.54428 | 5443 ft | 256 kts | 205° |
| 2026-05-03 21:48 | 30.47776 | -97.55325 | 5332 ft | 250 kts | 205° |
| 2026-05-03 21:49 | 30.46234 | -97.56199 | 5200 ft | 242 kts | 205° |
| 2026-05-03 21:49 | 30.44752 | -97.57039 | 5086 ft | 234 kts | 205° |
| 2026-05-03 21:49 | 30.43357 | -97.57975 | 4918 ft | 232 kts | 220° |
| 2026-05-03 21:49 | 30.42230 | -97.59316 | 4754 ft | 231 kts | 225° |
| 2026-05-03 21:50 | 30.41125 | -97.60640 | 4550 ft | 227 kts | 224° |
| 2026-05-03 21:50 | 30.40030 | -97.61936 | 4328 ft | 223 kts | 224° |
| 2026-05-03 21:50 | 30.38951 | -97.63200 | 4149 ft | 219 kts | 224° |
| 2026-05-03 21:50 | 30.37854 | -97.64375 | 3886 ft | 217 kts | 213° |
| 2026-05-03 21:51 | 30.36593 | -97.65319 | 3632 ft | 214 kts | 212° |
| 2026-05-03 21:51 | 30.35404 | -97.66257 | 3498 ft | 198 kts | 213° |
| 2026-05-03 21:51 | 30.34319 | -97.67137 | 3379 ft | 182 kts | 213° |
| 2026-05-03 21:51 | 30.33279 | -97.67933 | 2979 ft | 182 kts | 206° |
| 2026-05-03 21:52 | 30.32088 | -97.68171 | 2755 ft | 167 kts | 175° |
| 2026-05-03 21:52 | 30.30954 | -97.68133 | 2468 ft | 157 kts | 178° |
| 2026-05-03 21:52 | 30.29908 | -97.68123 | 2259 ft | 149 kts | 178° |
| 2026-05-03 21:52 | 30.28884 | -97.68106 | 2050 ft | 147 kts | 178° |
| 2026-05-03 21:53 | 30.27855 | -97.68087 | 1869 ft | 149 kts | 178° |
| 2026-05-03 21:53 | 30.26814 | -97.68063 | 1652 ft | 150 kts | 178° |
| 2026-05-03 21:53 | 30.25774 | -97.68037 | 1473 ft | 147 kts | 180° |
| 2026-05-03 21:53 | 30.24777 | -97.68003 | 1330 ft | 139 kts | 180° |
| 2026-05-03 21:54 | 30.23834 | -97.67991 | 1169 ft | 134 kts | 181° |
| 2026-05-03 21:54 | 30.22901 | -97.67979 | 897 ft | 135 kts | 180° |
| 2026-05-03 21:54 | 30.21967 | -97.67934 | 661 ft | 132 kts | 180° |
| 2026-05-03 21:54 | 30.21071 | -97.67925 | 531 ft | 123 kts | 180° |
| 2026-05-03 21:55 | 30.20378 | -97.67913 | 526 ft | 54 kts | 179° |
| 2026-05-03 21:55 | 30.20083 | -97.67895 | 526 ft | 36 kts | 172° |
| 2026-05-03 21:55 | 30.19916 | -97.67819 | 525 ft | 23 kts | 135° |
| 2026-05-03 21:55 | 30.19888 | -97.67761 | 526 ft | 0 kts | 100° |
| 2026-05-03 21:56 | 30.19887 | -97.67758 | 526 ft | 3 kts | 99° |
| 2026-05-03 21:56 | 30.19887 | -97.67660 | 526 ft | 19 kts | 89° |
| 2026-05-03 21:56 | 30.19891 | -97.67493 | 526 ft | 23 kts | 88° |
| 2026-05-03 21:56 | 30.19895 | -97.67309 | 526 ft | 22 kts | 89° |
| 2026-05-03 21:57 | 30.19898 | -97.67135 | 526 ft | 22 kts | 89° |
| 2026-05-03 21:57 | 30.19922 | -97.66999 | 526 ft | 16 kts | 38° |
| 2026-05-03 21:57 | 30.20021 | -97.66967 | 526 ft | 15 kts | 51° |
| 2026-05-03 21:57 | 30.20027 | -97.66893 | 526 ft | 8 kts | 100° |
| 2026-05-03 21:58 | 30.20015 | -97.66831 | 526 ft | 9 kts | 103° |
| 2026-05-03 21:58 | 30.20008 | -97.66755 | 526 ft | 9 kts | 69° |
| 2026-05-03 21:58 | 30.20068 | -97.66730 | 526 ft | 9 kts | 8° |
| 2026-05-03 21:58 | 30.20119 | -97.66722 | 526 ft | 3 kts | 8° |
| 2026-05-03 21:59 | 30.20132 | -97.66720 | 526 ft | 0 kts | 8° |